sensor_id;sensor_type;location;lat;lon;timestamp;pressure;altitude;pressure_sealevel;temperature;humidity
10700;BME280;5401;41.986;21.452;2023-08-06T00:00:20;97241.19;;;21.65;69.23
10700;BME280;5401;41.986;21.452;2023-08-06T00:02:48;97242.41;;;21.59;68.87
10700;BME280;5401;41.986;21.452;2023-08-06T00:05:17;97246.78;;;21.60;69.63
10700;BME280;5401;41.986;21.452;2023-08-06T00:07:46;97246.28;;;21.58;68.98
10700;BME280;5401;41.986;21.452;2023-08-06T00:10:14;97246.56;;;21.56;69.34
10700;BME280;5401;41.986;21.452;2023-08-06T00:12:42;97256.66;;;21.56;69.52
10700;BME280;5401;41.986;21.452;2023-08-06T00:15:10;97260.75;;;21.45;69.92
10700;BME280;5401;41.986;21.452;2023-08-06T00:17:38;97239.97;;;21.36;69.90
10700;BME280;5401;41.986;21.452;2023-08-06T00:20:06;97252.09;;;21.43;70.23
10700;BME280;5401;41.986;21.452;2023-08-06T00:22:37;97259.13;;;21.31;70.14
10700;BME280;5401;41.986;21.452;2023-08-06T00:25:05;97257.22;;;21.31;70.13
10700;BME280;5401;41.986;21.452;2023-08-06T00:27:33;97269.03;;;21.40;70.64
10700;BME280;5401;41.986;21.452;2023-08-06T00:30:00;97261.72;;;21.49;70.64
10700;BME280;5401;41.986;21.452;2023-08-06T00:32:28;97253.38;;;21.46;70.35
10700;BME280;5401;41.986;21.452;2023-08-06T00:34:55;97264.47;;;21.36;70.79
10700;BME280;5401;41.986;21.452;2023-08-06T00:37:23;97269.94;;;21.22;70.66
10700;BME280;5401;41.986;21.452;2023-08-06T00:39:52;97263.81;;;21.17;70.60
10700;BME280;5401;41.986;21.452;2023-08-06T00:42:19;97264.69;;;21.12;71.59
10700;BME280;5401;41.986;21.452;2023-08-06T00:44:48;97280.16;;;21.17;71.42
10700;BME280;5401;41.986;21.452;2023-08-06T00:47:16;97284.66;;;21.21;71.22
10700;BME280;5401;41.986;21.452;2023-08-06T00:49:44;97292.13;;;21.29;71.55
10700;BME280;5401;41.986;21.452;2023-08-06T00:52:11;97301.88;;;21.30;71.29
10700;BME280;5401;41.986;21.452;2023-08-06T00:54:40;97285.16;;;21.23;71.27
10700;BME280;5401;41.986;21.452;2023-08-06T00:57:09;97300.28;;;21.29;71.67
10700;BME280;5401;41.986;21.452;2023-08-06T00:59:38;97304.41;;;21.27;71.65
10700;BME280;5401;41.986;21.452;2023-08-06T01:02:06;97293.94;;;21.20;71.67
10700;BME280;5401;41.986;21.452;2023-08-06T01:04:33;97296.28;;;21.13;72.15
10700;BME280;5401;41.986;21.452;2023-08-06T01:07:07;97293.84;;;21.12;72.70
10700;BME280;5401;41.986;21.452;2023-08-06T01:09:43;97286.38;;;21.17;72.85
10700;BME280;5401;41.986;21.452;2023-08-06T01:12:21;97267.63;;;21.16;72.95
10700;BME280;5401;41.986;21.452;2023-08-06T01:14:56;97277.41;;;21.17;72.81
10700;BME280;5401;41.986;21.452;2023-08-06T01:17:25;97272.69;;;21.09;72.85
10700;BME280;5401;41.986;21.452;2023-08-06T01:19:53;97272.56;;;21.14;73.41
10700;BME280;5401;41.986;21.452;2023-08-06T01:22:23;97262.97;;;21.16;73.30
10700;BME280;5401;41.986;21.452;2023-08-06T01:24:50;97253.59;;;21.22;73.37
10700;BME280;5401;41.986;21.452;2023-08-06T01:27:25;97244.03;;;21.25;73.82
10700;BME280;5401;41.986;21.452;2023-08-06T01:29:59;97255.03;;;21.20;73.55
10700;BME280;5401;41.986;21.452;2023-08-06T01:32:32;97254.53;;;21.05;73.77
10700;BME280;5401;41.986;21.452;2023-08-06T01:35:02;97240.25;;;20.86;74.55
10700;BME280;5401;41.986;21.452;2023-08-06T01:37:32;97260.31;;;20.76;74.74
10700;BME280;5401;41.986;21.452;2023-08-06T01:40:00;97259.19;;;20.91;75.15
10700;BME280;5401;41.986;21.452;2023-08-06T01:42:28;97250.50;;;21.02;74.71
10700;BME280;5401;41.986;21.452;2023-08-06T01:44:55;97243.47;;;21.01;74.34
10700;BME280;5401;41.986;21.452;2023-08-06T01:47:23;97247.50;;;20.77;74.67
10700;BME280;5401;41.986;21.452;2023-08-06T01:49:50;97254.25;;;20.66;75.36
10700;BME280;5401;41.986;21.452;2023-08-06T01:52:18;97248.22;;;20.69;75.58
10700;BME280;5401;41.986;21.452;2023-08-06T01:54:46;97245.38;;;20.74;75.39
10700;BME280;5401;41.986;21.452;2023-08-06T01:57:14;97233.28;;;20.80;75.20
10700;BME280;5401;41.986;21.452;2023-08-06T01:59:41;97227.84;;;20.80;75.34
10700;BME280;5401;41.986;21.452;2023-08-06T02:02:09;97222.31;;;20.85;75.34
10700;BME280;5401;41.986;21.452;2023-08-06T02:04:36;97223.91;;;20.86;75.19
10700;BME280;5401;41.986;21.452;2023-08-06T02:07:04;97223.75;;;20.82;75.38
10700;BME280;5401;41.986;21.452;2023-08-06T02:09:32;97221.19;;;20.86;75.39
10700;BME280;5401;41.986;21.452;2023-08-06T02:12:03;97230.66;;;20.88;75.44
10700;BME280;5401;41.986;21.452;2023-08-06T02:14:31;97237.09;;;20.92;75.54
10700;BME280;5401;41.986;21.452;2023-08-06T02:16:58;97237.63;;;20.94;75.28
10700;BME280;5401;41.986;21.452;2023-08-06T02:19:25;97239.63;;;21.02;75.44
10700;BME280;5401;41.986;21.452;2023-08-06T02:21:53;97250.91;;;21.09;75.07
10700;BME280;5401;41.986;21.452;2023-08-06T02:24:20;97240.69;;;21.14;75.37
10700;BME280;5401;41.986;21.452;2023-08-06T02:26:48;97253.22;;;21.15;75.05
10700;BME280;5401;41.986;21.452;2023-08-06T02:29:18;97254.31;;;21.14;74.82
10700;BME280;5401;41.986;21.452;2023-08-06T02:31:46;97253.81;;;21.12;75.05
10700;BME280;5401;41.986;21.452;2023-08-06T02:34:13;97251.28;;;21.16;74.92
10700;BME280;5401;41.986;21.452;2023-08-06T02:36:41;97253.28;;;21.24;75.40
10700;BME280;5401;41.986;21.452;2023-08-06T02:39:08;97241.31;;;21.25;74.49
10700;BME280;5401;41.986;21.452;2023-08-06T02:41:35;97235.88;;;21.25;74.83
10700;BME280;5401;41.986;21.452;2023-08-06T02:44:03;97238.38;;;21.21;74.69
10700;BME280;5401;41.986;21.452;2023-08-06T02:46:32;97231.31;;;21.20;74.56
10700;BME280;5401;41.986;21.452;2023-08-06T02:49:00;97226.50;;;21.17;74.94
10700;BME280;5401;41.986;21.452;2023-08-06T02:51:27;97226.09;;;21.10;74.56
10700;BME280;5401;41.986;21.452;2023-08-06T02:53:55;97221.28;;;21.08;74.51
10700;BME280;5401;41.986;21.452;2023-08-06T02:56:22;97218.47;;;20.99;74.35
10700;BME280;5401;41.986;21.452;2023-08-06T02:58:49;97207.00;;;20.89;74.57
10700;BME280;5401;41.986;21.452;2023-08-06T03:01:17;97204.06;;;20.85;74.68
10700;BME280;5401;41.986;21.452;2023-08-06T03:03:46;97192.69;;;20.83;74.55
10700;BME280;5401;41.986;21.452;2023-08-06T03:06:13;97173.66;;;20.83;74.67
10700;BME280;5401;41.986;21.452;2023-08-06T03:08:40;97163.88;;;20.82;74.21
10700;BME280;5401;41.986;21.452;2023-08-06T03:11:08;97163.06;;;20.82;74.39
10700;BME280;5401;41.986;21.452;2023-08-06T03:13:35;97173.94;;;20.82;74.45
10700;BME280;5401;41.986;21.452;2023-08-06T03:16:03;97163.06;;;20.82;74.33
10700;BME280;5401;41.986;21.452;2023-08-06T03:18:31;97159.84;;;20.80;74.26
10700;BME280;5401;41.986;21.452;2023-08-06T03:20:59;97154.91;;;20.82;74.33
10700;BME280;5401;41.986;21.452;2023-08-06T03:23:27;97150.88;;;20.79;74.36
10700;BME280;5401;41.986;21.452;2023-08-06T03:25:54;97153.91;;;20.78;73.87
10700;BME280;5401;41.986;21.452;2023-08-06T03:28:22;97158.53;;;20.77;74.29
10700;BME280;5401;41.986;21.452;2023-08-06T03:30:59;97158.53;;;20.77;74.23
10700;BME280;5401;41.986;21.452;2023-08-06T03:33:26;97158.84;;;20.76;74.22
10700;BME280;5401;41.986;21.452;2023-08-06T03:35:54;97148.78;;;20.76;74.44
10700;BME280;5401;41.986;21.452;2023-08-06T03:38:23;97152.00;;;20.78;74.19
10700;BME280;5401;41.986;21.452;2023-08-06T03:40:51;97157.44;;;20.78;74.78
10700;BME280;5401;41.986;21.452;2023-08-06T03:43:18;97158.75;;;20.81;74.09
10700;BME280;5401;41.986;21.452;2023-08-06T03:45:46;97162.56;;;20.80;74.37
10700;BME280;5401;41.986;21.452;2023-08-06T03:48:15;97170.53;;;20.76;74.91
10700;BME280;5401;41.986;21.452;2023-08-06T03:50:43;97172.34;;;20.81;74.45
10700;BME280;5401;41.986;21.452;2023-08-06T03:53:10;97166.69;;;20.77;74.33
10700;BME280;5401;41.986;21.452;2023-08-06T03:55:39;97165.84;;;21.04;74.11
10700;BME280;5401;41.986;21.452;2023-08-06T03:58:07;97173.81;;;21.57;73.32
10700;BME280;5401;41.986;21.452;2023-08-06T04:00:34;97175.53;;;21.96;72.16
10700;BME280;5401;41.986;21.452;2023-08-06T04:03:02;97191.25;;;22.21;71.65
10700;BME280;5401;41.986;21.452;2023-08-06T04:05:31;97188.81;;;22.19;70.47
10700;BME280;5401;41.986;21.452;2023-08-06T04:07:58;97196.41;;;22.01;70.82
10700;BME280;5401;41.986;21.452;2023-08-06T04:10:26;97195.94;;;21.77;70.86
10700;BME280;5401;41.986;21.452;2023-08-06T04:12:55;97211.97;;;21.57;70.81
10700;BME280;5401;41.986;21.452;2023-08-06T04:15:22;97226.38;;;21.22;72.00
10700;BME280;5401;41.986;21.452;2023-08-06T04:17:50;97227.13;;;20.88;72.82
10700;BME280;5401;41.986;21.452;2023-08-06T04:20:17;97235.22;;;20.66;73.91
10700;BME280;5401;41.986;21.452;2023-08-06T04:22:45;97245.56;;;20.51;74.35
10700;BME280;5401;41.986;21.452;2023-08-06T04:25:12;97253.38;;;20.26;74.80
10700;BME280;5401;41.986;21.452;2023-08-06T04:27:40;97238.06;;;20.16;75.52
10700;BME280;5401;41.986;21.452;2023-08-06T04:30:10;97242.78;;;20.11;75.83
10700;BME280;5401;41.986;21.452;2023-08-06T04:32:39;97233.84;;;20.10;76.21
10700;BME280;5401;41.986;21.452;2023-08-06T04:35:06;97237.28;;;20.16;76.26
10700;BME280;5401;41.986;21.452;2023-08-06T04:37:34;97234.56;;;20.29;76.33
10700;BME280;5401;41.986;21.452;2023-08-06T04:40:01;97246.88;;;20.40;75.83
10700;BME280;5401;41.986;21.452;2023-08-06T04:42:29;97257.13;;;20.43;75.81
10700;BME280;5401;41.986;21.452;2023-08-06T04:44:56;97250.28;;;20.45;76.18
10700;BME280;5401;41.986;21.452;2023-08-06T04:47:25;97250.72;;;20.52;75.81
10700;BME280;5401;41.986;21.452;2023-08-06T04:49:53;97257.66;;;20.58;75.90
10700;BME280;5401;41.986;21.452;2023-08-06T04:52:20;97262.72;;;20.65;75.51
10700;BME280;5401;41.986;21.452;2023-08-06T04:54:48;97270.78;;;20.70;75.64
10700;BME280;5401;41.986;21.452;2023-08-06T04:57:15;97274.63;;;20.69;75.64
10700;BME280;5401;41.986;21.452;2023-08-06T04:59:43;97274.00;;;20.72;75.75
10700;BME280;5401;41.986;21.452;2023-08-06T05:02:10;97274.28;;;20.70;75.70
10700;BME280;5401;41.986;21.452;2023-08-06T05:04:39;97274.72;;;20.64;76.05
10700;BME280;5401;41.986;21.452;2023-08-06T05:07:06;97284.69;;;20.68;75.95
10700;BME280;5401;41.986;21.452;2023-08-06T05:09:34;97281.88;;;20.73;76.06
10700;BME280;5401;41.986;21.452;2023-08-06T05:12:03;97288.22;;;20.82;76.54
10700;BME280;5401;41.986;21.452;2023-08-06T05:14:31;97287.22;;;20.91;76.28
10700;BME280;5401;41.986;21.452;2023-08-06T05:16:58;97287.00;;;21.01;75.54
10700;BME280;5401;41.986;21.452;2023-08-06T05:19:28;97286.31;;;21.09;75.98
10700;BME280;5401;41.986;21.452;2023-08-06T05:21:57;97281.66;;;21.10;76.15
10700;BME280;5401;41.986;21.452;2023-08-06T05:24:24;97287.91;;;21.10;75.62
10700;BME280;5401;41.986;21.452;2023-08-06T05:26:52;97295.84;;;21.20;75.41
10700;BME280;5401;41.986;21.452;2023-08-06T05:29:19;97290.63;;;21.23;75.01
10700;BME280;5401;41.986;21.452;2023-08-06T05:31:47;97293.63;;;21.22;75.29
10700;BME280;5401;41.986;21.452;2023-08-06T05:34:14;97287.09;;;21.23;75.67
10700;BME280;5401;41.986;21.452;2023-08-06T05:36:41;97285.44;;;21.35;75.47
10700;BME280;5401;41.986;21.452;2023-08-06T05:39:10;97276.41;;;21.40;74.83
10700;BME280;5401;41.986;21.452;2023-08-06T05:41:38;97280.91;;;21.44;75.12
10700;BME280;5401;41.986;21.452;2023-08-06T05:44:05;97283.22;;;21.50;75.10
10700;BME280;5401;41.986;21.452;2023-08-06T05:46:33;97294.19;;;21.59;74.26
10700;BME280;5401;41.986;21.452;2023-08-06T05:49:00;97287.47;;;21.78;73.95
10700;BME280;5401;41.986;21.452;2023-08-06T05:51:28;97286.16;;;21.97;73.76
10700;BME280;5401;41.986;21.452;2023-08-06T05:53:55;97295.91;;;22.33;72.89
10700;BME280;5401;41.986;21.452;2023-08-06T05:56:24;97296.44;;;23.04;71.69
10700;BME280;5401;41.986;21.452;2023-08-06T05:58:51;97288.41;;;23.71;70.06
10700;BME280;5401;41.986;21.452;2023-08-06T06:01:19;97298.38;;;24.42;68.47
10700;BME280;5401;41.986;21.452;2023-08-06T06:03:46;97297.53;;;25.33;66.65
10700;BME280;5401;41.986;21.452;2023-08-06T06:06:14;97297.47;;;26.18;64.56
10700;BME280;5401;41.986;21.452;2023-08-06T06:08:42;97303.69;;;27.03;62.61
10700;BME280;5401;41.986;21.452;2023-08-06T06:11:09;97307.00;;;27.80;60.43
10700;BME280;5401;41.986;21.452;2023-08-06T06:13:38;97307.59;;;28.51;58.84
10700;BME280;5401;41.986;21.452;2023-08-06T06:16:06;97304.78;;;29.06;57.66
10700;BME280;5401;41.986;21.452;2023-08-06T06:18:33;97318.09;;;29.65;56.16
10700;BME280;5401;41.986;21.452;2023-08-06T06:21:00;97324.31;;;30.26;55.03
10700;BME280;5401;41.986;21.452;2023-08-06T06:23:28;97321.06;;;30.58;54.10
10700;BME280;5401;41.986;21.452;2023-08-06T06:25:55;97312.31;;;30.75;53.64
10700;BME280;5401;41.986;21.452;2023-08-06T06:28:23;97310.38;;;30.38;53.68
10700;BME280;5401;41.986;21.452;2023-08-06T06:30:52;97318.38;;;29.75;54.05
10700;BME280;5401;41.986;21.452;2023-08-06T06:33:19;97306.31;;;29.34;54.30
10700;BME280;5401;41.986;21.452;2023-08-06T06:35:47;97318.16;;;29.34;54.58
10700;BME280;5401;41.986;21.452;2023-08-06T06:38:14;97319.78;;;29.08;54.68
10700;BME280;5401;41.986;21.452;2023-08-06T06:40:41;97302.63;;;28.84;55.02
10700;BME280;5401;41.986;21.452;2023-08-06T06:43:09;97305.28;;;28.80;54.81
10700;BME280;5401;41.986;21.452;2023-08-06T06:45:36;97305.38;;;28.84;54.63
10700;BME280;5401;41.986;21.452;2023-08-06T06:48:05;97296.59;;;28.78;54.46
10700;BME280;5401;41.986;21.452;2023-08-06T06:50:33;97294.41;;;28.72;54.50
10700;BME280;5401;41.986;21.452;2023-08-06T06:53:02;97296.38;;;28.44;54.75
10700;BME280;5401;41.986;21.452;2023-08-06T06:55:30;97296.53;;;28.36;54.81
10700;BME280;5401;41.986;21.452;2023-08-06T06:57:57;97296.44;;;28.33;55.19
10700;BME280;5401;41.986;21.452;2023-08-06T07:00:25;97294.03;;;28.31;54.75
10700;BME280;5401;41.986;21.452;2023-08-06T07:02:52;97310.53;;;28.31;54.54
10700;BME280;5401;41.986;21.452;2023-08-06T07:05:21;97304.69;;;28.33;54.64
10700;BME280;5401;41.986;21.452;2023-08-06T07:07:48;97305.75;;;28.28;54.74
10700;BME280;5401;41.986;21.452;2023-08-06T07:10:16;97299.28;;;28.09;54.50
10700;BME280;5401;41.986;21.452;2023-08-06T07:12:44;97299.53;;;27.92;54.82
10700;BME280;5401;41.986;21.452;2023-08-06T07:15:11;97282.94;;;27.65;54.60
10700;BME280;5401;41.986;21.452;2023-08-06T07:17:39;97288.03;;;27.51;55.38
10700;BME280;5401;41.986;21.452;2023-08-06T07:20:07;97290.72;;;27.75;54.85
10700;BME280;5401;41.986;21.452;2023-08-06T07:22:36;97280.31;;;27.57;55.07
10700;BME280;5401;41.986;21.452;2023-08-06T07:25:04;97292.50;;;27.44;55.12
10700;BME280;5401;41.986;21.452;2023-08-06T07:27:32;97278.25;;;27.18;55.11
10700;BME280;5401;41.986;21.452;2023-08-06T07:29:59;97296.13;;;27.24;55.32
10700;BME280;5401;41.986;21.452;2023-08-06T07:32:27;97301.88;;;27.43;55.26
10700;BME280;5401;41.986;21.452;2023-08-06T07:34:54;97298.06;;;27.71;54.94
10700;BME280;5401;41.986;21.452;2023-08-06T07:37:25;97313.47;;;28.11;54.63
10700;BME280;5401;41.986;21.452;2023-08-06T07:39:55;97309.75;;;28.85;53.81
10700;BME280;5401;41.986;21.452;2023-08-06T07:42:23;97309.59;;;29.54;52.72
10700;BME280;5401;41.986;21.452;2023-08-06T07:44:52;97312.97;;;29.97;51.92
10700;BME280;5401;41.986;21.452;2023-08-06T07:47:19;97318.00;;;30.26;51.23
10700;BME280;5401;41.986;21.452;2023-08-06T07:49:47;97321.84;;;30.59;51.07
10700;BME280;5401;41.986;21.452;2023-08-06T07:52:14;97321.00;;;30.96;50.57
10700;BME280;5401;41.986;21.452;2023-08-06T07:54:42;97314.97;;;31.31;49.24
10700;BME280;5401;41.986;21.452;2023-08-06T07:57:11;97320.38;;;31.47;49.22
10700;BME280;5401;41.986;21.452;2023-08-06T07:59:39;97320.78;;;31.26;48.74
10700;BME280;5401;41.986;21.452;2023-08-06T08:02:07;97328.72;;;31.28;48.33
10700;BME280;5401;41.986;21.452;2023-08-06T08:04:34;97319.69;;;31.09;48.97
10700;BME280;5401;41.986;21.452;2023-08-06T08:07:02;97316.88;;;31.50;48.63
10700;BME280;5401;41.986;21.452;2023-08-06T08:09:30;97328.16;;;31.86;47.85
10700;BME280;5401;41.986;21.452;2023-08-06T08:11:57;97329.03;;;31.93;46.94
10700;BME280;5401;41.986;21.452;2023-08-06T08:14:28;97321.50;;;32.16;46.20
10700;BME280;5401;41.986;21.452;2023-08-06T08:17:01;97322.16;;;32.35;45.87
10700;BME280;5401;41.986;21.452;2023-08-06T08:19:29;97320.06;;;32.58;45.56
10700;BME280;5401;41.986;21.452;2023-08-06T08:21:56;97318.66;;;33.03;44.84
10700;BME280;5401;41.986;21.452;2023-08-06T08:24:24;97320.25;;;33.47;44.44
10700;BME280;5401;41.986;21.452;2023-08-06T08:26:52;97318.63;;;33.82;43.98
10700;BME280;5401;41.986;21.452;2023-08-06T08:29:20;97322.25;;;33.93;43.22
10700;BME280;5401;41.986;21.452;2023-08-06T08:31:57;97318.25;;;33.87;43.21
10700;BME280;5401;41.986;21.452;2023-08-06T08:34:24;97317.16;;;34.05;43.13
10700;BME280;5401;41.986;21.452;2023-08-06T08:37:14;97328.19;;;33.91;42.66
10700;BME280;5401;41.986;21.452;2023-08-06T08:39:42;97316.28;;;33.45;43.26
10700;BME280;5401;41.986;21.452;2023-08-06T08:42:10;97320.75;;;33.16;42.93
10700;BME280;5401;41.986;21.452;2023-08-06T08:44:37;97307.09;;;32.98;43.35
10700;BME280;5401;41.986;21.452;2023-08-06T08:47:07;97329.13;;;33.20;42.90
10700;BME280;5401;41.986;21.452;2023-08-06T08:49:49;97319.81;;;33.02;43.04
10700;BME280;5401;41.986;21.452;2023-08-06T08:52:18;97317.72;;;32.92;43.40
10700;BME280;5401;41.986;21.452;2023-08-06T08:54:52;97315.25;;;33.20;43.14
10700;BME280;5401;41.986;21.452;2023-08-06T08:57:20;97326.56;;;33.37;42.75
10700;BME280;5401;41.986;21.452;2023-08-06T08:59:50;97320.06;;;33.69;42.34
10700;BME280;5401;41.986;21.452;2023-08-06T09:02:21;97324.28;;;33.49;42.34
10700;BME280;5401;41.986;21.452;2023-08-06T09:04:48;97315.41;;;32.98;42.79
10700;BME280;5401;41.986;21.452;2023-08-06T09:07:18;97303.63;;;32.13;43.26
10700;BME280;5401;41.986;21.452;2023-08-06T09:09:49;97302.88;;;32.16;42.98
10700;BME280;5401;41.986;21.452;2023-08-06T09:12:17;97313.06;;;32.35;43.20
10700;BME280;5401;41.986;21.452;2023-08-06T09:15:03;97312.56;;;32.58;43.12
10700;BME280;5401;41.986;21.452;2023-08-06T09:17:32;97307.50;;;32.35;43.16
10700;BME280;5401;41.986;21.452;2023-08-06T09:20:09;97310.78;;;32.43;42.59
10700;BME280;5401;41.986;21.452;2023-08-06T09:22:37;97308.25;;;32.64;42.70
10700;BME280;5401;41.986;21.452;2023-08-06T09:25:05;97310.97;;;32.28;42.72
10700;BME280;5401;41.986;21.452;2023-08-06T09:27:36;97309.72;;;31.97;43.46
10700;BME280;5401;41.986;21.452;2023-08-06T09:30:04;97313.25;;;31.94;43.30
10700;BME280;5401;41.986;21.452;2023-08-06T09:32:46;97311.81;;;31.81;43.22
10700;BME280;5401;41.986;21.452;2023-08-06T09:35:17;97319.88;;;31.63;43.53
10700;BME280;5401;41.986;21.452;2023-08-06T09:37:45;97320.75;;;31.93;42.90
10700;BME280;5401;41.986;21.452;2023-08-06T09:40:25;97312.47;;;31.71;42.57
10700;BME280;5401;41.986;21.452;2023-08-06T09:42:52;97321.16;;;31.69;43.21
10700;BME280;5401;41.986;21.452;2023-08-06T09:45:20;97318.41;;;31.95;42.54
10700;BME280;5401;41.986;21.452;2023-08-06T09:47:50;97309.41;;;32.31;42.34
10700;BME280;5401;41.986;21.452;2023-08-06T09:50:23;97308.66;;;32.63;41.76
10700;BME280;5401;41.986;21.452;2023-08-06T09:52:56;97311.31;;;32.85;41.81
10700;BME280;5401;41.986;21.452;2023-08-06T09:55:24;97301.38;;;32.84;41.30
10700;BME280;5401;41.986;21.452;2023-08-06T09:57:53;97300.34;;;32.66;41.15
10700;BME280;5401;41.986;21.452;2023-08-06T10:00:21;97291.75;;;32.74;40.83
10700;BME280;5401;41.986;21.452;2023-08-06T10:02:51;97289.50;;;32.83;40.76
10700;BME280;5401;41.986;21.452;2023-08-06T10:05:22;97303.38;;;32.83;40.74
10700;BME280;5401;41.986;21.452;2023-08-06T10:07:51;97302.81;;;32.38;40.94
10700;BME280;5401;41.986;21.452;2023-08-06T10:10:22;97297.56;;;32.04;40.59
10700;BME280;5401;41.986;21.452;2023-08-06T10:12:52;97297.88;;;31.99;41.39
10700;BME280;5401;41.986;21.452;2023-08-06T10:15:25;97296.06;;;32.36;40.50
10700;BME280;5401;41.986;21.452;2023-08-06T10:17:56;97291.09;;;32.52;40.15
10700;BME280;5401;41.986;21.452;2023-08-06T10:20:25;97286.28;;;32.81;40.50
10700;BME280;5401;41.986;21.452;2023-08-06T10:23:02;97288.66;;;33.15;39.81
10700;BME280;5401;41.986;21.452;2023-08-06T10:25:33;97281.88;;;33.13;39.47
10700;BME280;5401;41.986;21.452;2023-08-06T10:28:01;97285.69;;;32.95;39.50
10700;BME280;5401;41.986;21.452;2023-08-06T10:30:34;97280.97;;;32.99;39.88
10700;BME280;5401;41.986;21.452;2023-08-06T10:33:09;97286.50;;;32.99;39.50
10700;BME280;5401;41.986;21.452;2023-08-06T10:35:38;97287.53;;;33.27;39.46
10700;BME280;5401;41.986;21.452;2023-08-06T10:38:08;97282.38;;;33.68;39.14
10700;BME280;5401;41.986;21.452;2023-08-06T10:40:36;97286.31;;;34.24;38.27
10700;BME280;5401;41.986;21.452;2023-08-06T10:43:04;97275.00;;;34.63;37.83
10700;BME280;5401;41.986;21.452;2023-08-06T10:45:37;97277.06;;;34.84;37.80
10700;BME280;5401;41.986;21.452;2023-08-06T10:48:05;97276.53;;;34.47;37.54
10700;BME280;5401;41.986;21.452;2023-08-06T10:50:34;97267.31;;;34.33;37.99
10700;BME280;5401;41.986;21.452;2023-08-06T10:53:04;97268.38;;;34.11;38.07
10700;BME280;5401;41.986;21.452;2023-08-06T10:55:32;97264.41;;;34.09;37.85
10700;BME280;5401;41.986;21.452;2023-08-06T10:58:00;97264.06;;;34.20;37.86
10700;BME280;5401;41.986;21.452;2023-08-06T11:00:27;97270.81;;;34.23;37.65
10700;BME280;5401;41.986;21.452;2023-08-06T11:02:55;97258.94;;;34.26;37.52
10700;BME280;5401;41.986;21.452;2023-08-06T11:05:22;97254.25;;;34.37;37.62
10700;BME280;5401;41.986;21.452;2023-08-06T11:07:51;97253.84;;;34.35;37.41
10700;BME280;5401;41.986;21.452;2023-08-06T11:10:18;97262.63;;;34.47;37.24
10700;BME280;5401;41.986;21.452;2023-08-06T11:12:46;97260.31;;;34.66;36.91
10700;BME280;5401;41.986;21.452;2023-08-06T11:15:14;97259.16;;;34.78;36.98
10700;BME280;5401;41.986;21.452;2023-08-06T11:17:41;97265.97;;;34.91;37.09
10700;BME280;5401;41.986;21.452;2023-08-06T11:20:09;97267.56;;;35.05;36.61
10700;BME280;5401;41.986;21.452;2023-08-06T11:22:37;97267.19;;;35.17;36.34
10700;BME280;5401;41.986;21.452;2023-08-06T11:25:07;97259.63;;;35.18;36.23
10700;BME280;5401;41.986;21.452;2023-08-06T11:27:35;97262.81;;;35.20;36.58
10700;BME280;5401;41.986;21.452;2023-08-06T11:30:03;97262.06;;;35.29;36.58
10700;BME280;5401;41.986;21.452;2023-08-06T11:32:31;97256.47;;;35.23;36.17
10700;BME280;5401;41.986;21.452;2023-08-06T11:35:09;97253.28;;;35.17;36.00
10700;BME280;5401;41.986;21.452;2023-08-06T11:37:38;97250.13;;;35.29;35.79
10700;BME280;5401;41.986;21.452;2023-08-06T11:40:09;97245.72;;;35.49;36.08
10700;BME280;5401;41.986;21.452;2023-08-06T11:42:38;97240.53;;;35.64;35.47
10700;BME280;5401;41.986;21.452;2023-08-06T11:45:06;97251.72;;;35.82;35.49
10700;BME280;5401;41.986;21.452;2023-08-06T11:47:38;97250.50;;;35.79;35.16
10700;BME280;5401;41.986;21.452;2023-08-06T11:50:07;97255.31;;;35.72;35.61
10700;BME280;5401;41.986;21.452;2023-08-06T11:52:34;97253.69;;;35.67;35.53
10700;BME280;5401;41.986;21.452;2023-08-06T11:55:08;97243.72;;;35.66;35.79
10700;BME280;5401;41.986;21.452;2023-08-06T11:57:38;97250.53;;;35.55;35.60
10700;BME280;5401;41.986;21.452;2023-08-06T12:00:07;97251.31;;;35.35;35.47
10700;BME280;5401;41.986;21.452;2023-08-06T12:02:35;97243.69;;;35.15;35.71
10700;BME280;5401;41.986;21.452;2023-08-06T12:05:04;97229.78;;;34.87;36.10
10700;BME280;5401;41.986;21.452;2023-08-06T12:07:39;97227.72;;;34.67;36.27
10700;BME280;5401;41.986;21.452;2023-08-06T12:10:07;97242.41;;;34.64;36.23
10700;BME280;5401;41.986;21.452;2023-08-06T12:12:36;97234.03;;;34.57;36.31
10700;BME280;5401;41.986;21.452;2023-08-06T12:15:05;97220.94;;;34.51;36.49
10700;BME280;5401;41.986;21.452;2023-08-06T12:17:33;97222.81;;;34.29;36.56
10700;BME280;5401;41.986;21.452;2023-08-06T12:20:01;97216.34;;;34.12;36.98
10700;BME280;5401;41.986;21.452;2023-08-06T12:22:32;97215.56;;;34.04;37.05
10700;BME280;5401;41.986;21.452;2023-08-06T12:25:01;97207.97;;;33.94;36.89
10700;BME280;5401;41.986;21.452;2023-08-06T12:27:29;97206.63;;;33.75;37.35
10700;BME280;5401;41.986;21.452;2023-08-06T12:29:58;97196.56;;;33.53;37.51
10700;BME280;5401;41.986;21.452;2023-08-06T12:32:26;97195.75;;;33.46;37.55
10700;BME280;5401;41.986;21.452;2023-08-06T12:34:53;97199.34;;;33.49;37.39
10700;BME280;5401;41.986;21.452;2023-08-06T12:37:21;97200.09;;;33.43;37.34
10700;BME280;5401;41.986;21.452;2023-08-06T12:39:49;97201.06;;;33.18;37.75
10700;BME280;5401;41.986;21.452;2023-08-06T12:42:16;97199.25;;;32.93;38.25
10700;BME280;5401;41.986;21.452;2023-08-06T12:44:44;97199.19;;;32.82;38.00
10700;BME280;5401;41.986;21.452;2023-08-06T12:47:12;97192.47;;;32.90;38.16
10700;BME280;5401;41.986;21.452;2023-08-06T12:49:40;97202.13;;;33.07;37.58
10700;BME280;5401;41.986;21.452;2023-08-06T12:52:07;97199.41;;;33.10;37.80
10700;BME280;5401;41.986;21.452;2023-08-06T12:54:35;97201.47;;;33.20;37.59
10700;BME280;5401;41.986;21.452;2023-08-06T12:57:04;97199.84;;;33.15;37.98
10700;BME280;5401;41.986;21.452;2023-08-06T12:59:31;97203.88;;;33.25;37.59
10700;BME280;5401;41.986;21.452;2023-08-06T13:02:00;97203.19;;;33.35;37.49
10700;BME280;5401;41.986;21.452;2023-08-06T13:04:29;97201.72;;;33.47;37.62
10700;BME280;5401;41.986;21.452;2023-08-06T13:06:56;97204.16;;;33.63;37.36